Change the Weather History Date:

Friday, May 9, 2014

  Actual Average Record
Temperature  
Mean Temperature 55 °F -  
Max Temperature 66 °F 69 °F 90 °F (1987)
Min Temperature 44 °F 44 °F 27 °F (1966)
Degree Days  
Heating Degree Days 10    
Growing Degree Days 5 (Base 50)    
Moisture  
Dew Point 37 °F    
Average Humidity 58    
Maximum Humidity 100    
Minimum Humidity 28    
Precipitation  
Precipitation 0.00 in - - ()
Sea Level Pressure  
Sea Level Pressure 29.75 in    
Wind  
Wind Speed 17 mph (WNW)    
Max Wind Speed 23 mph    
Max Gust Speed 33 mph    
Visibility 10 miles    
Events      
Averages and records for this station are not official NWS values.
T = Trace of Precipitation, MM = Missing Value Source: NWS Daily Summary

Daily Weather History Graph

Daily Weather History Graph

Search for Another Location

Airport or City:

Trip Planner

Search our weather history database for the weather conditions in past years. The results will help you decide how hot, cold, wet, or windy it might be!

Date:

Astronomy

May. 09, 2014 Rise Set
Actual Time 6:06 AM CDT 8:33 PM CDT
Civil Twilight 5:34 AM CDT 9:06 PM CDT
Nautical Twilight 4:54 AM CDT 9:46 PM CDT
Astronomical Twilight 4:09 AM CDT 10:31 PM CDT
Moon 3:24 PM CDT (5/9) 3:18 AM CDT (5/9)
Length of Visible Light 15h 31m
Length of Day
14h 27m
Waxing Gibbous, 74% of the Moon is Illuminated
May 9
Waxing Gibbous
May 14
Full
May 21
Last Quarter
May 28
New
Jun 5
First Quarter

Hourly Weather History & Observations

Time (CDT) Temp. Windchill Dew Point Humidity Pressure Visibility Wind Dir Wind Speed Gust Speed Precip Events Conditions
12:15 AM 48.2 °F - 46.4 °F 93% 29.67 in 4.0 mi West 18.4 mph - N/A   Overcast
12:35 AM 48.2 °F - 46.4 °F 93% 29.67 in 2.5 mi West 18.4 mph 25.3 mph N/A   Overcast
12:55 AM 46.4 °F 38.7 °F 46.4 °F 100% 29.66 in 4.0 mi West 20.7 mph 28.8 mph N/A   Overcast
1:15 AM 46.4 °F 38.5 °F 44.6 °F 93% 29.67 in 10.0 mi West 21.9 mph 27.6 mph N/A   Overcast
1:35 AM 46.4 °F 38.5 °F 44.6 °F 93% 29.67 in 10.0 mi West 21.9 mph - N/A   Overcast
1:55 AM 46.4 °F 38.3 °F 44.6 °F 93% 29.68 in 10.0 mi West 23.0 mph 29.9 mph N/A   Overcast
2:15 AM 46.4 °F 39.2 °F 44.6 °F 93% 29.68 in 10.0 mi WNW 18.4 mph 28.8 mph N/A   Overcast
2:35 AM 46.4 °F 39.0 °F 42.8 °F 87% 29.69 in 10.0 mi WNW 19.6 mph 26.5 mph N/A   Overcast
2:55 AM 46.4 °F 39.0 °F 42.8 °F 87% 29.69 in 10.0 mi WNW 19.6 mph 26.5 mph N/A   Overcast
3:15 AM 46.4 °F 39.0 °F 42.8 °F 87% 29.70 in 10.0 mi WNW 19.6 mph 25.3 mph N/A   Overcast
3:35 AM 46.4 °F 39.0 °F 42.8 °F 87% 29.70 in 10.0 mi WNW 19.6 mph 25.3 mph N/A   Overcast
3:55 AM 46.4 °F 39.5 °F 42.8 °F 87% 29.70 in 10.0 mi WNW 17.3 mph 28.8 mph N/A   Overcast
4:15 AM 46.4 °F 39.2 °F 42.8 °F 87% 29.69 in 10.0 mi WNW 18.4 mph 25.3 mph N/A   Overcast
4:35 AM 46.4 °F 39.8 °F 42.8 °F 87% 29.70 in 10.0 mi WNW 16.1 mph 23.0 mph N/A   Overcast
5:15 AM 46.4 °F 40.1 °F 42.8 °F 87% 29.71 in 10.0 mi WNW 15.0 mph 23.0 mph N/A   Overcast
5:35 AM 46.4 °F 39.5 °F 42.8 °F 87% 29.71 in 10.0 mi WNW 17.3 mph 26.5 mph N/A   Overcast
5:55 AM 46.4 °F 39.8 °F 41.0 °F 81% 29.72 in 10.0 mi WNW 16.1 mph 23.0 mph N/A   Overcast
6:15 AM 46.4 °F 39.8 °F 41.0 °F 81% 29.73 in 10.0 mi WNW 16.1 mph 24.2 mph N/A   Overcast
6:35 AM 46.4 °F 40.1 °F 41.0 °F 81% 29.73 in 10.0 mi WNW 15.0 mph 23.0 mph N/A   Overcast
6:55 AM 46.4 °F 40.1 °F 41.0 °F 81% 29.74 in 10.0 mi WNW 15.0 mph 25.3 mph N/A   Overcast
7:15 AM 46.4 °F 40.1 °F 41.0 °F 81% 29.74 in 10.0 mi WNW 15.0 mph 23.0 mph N/A   Overcast
7:35 AM 46.4 °F 40.4 °F 41.0 °F 81% 29.75 in 10.0 mi WNW 13.8 mph 21.9 mph N/A   Overcast
7:55 AM 46.4 °F 39.5 °F 41.0 °F 81% 29.76 in 10.0 mi West 17.3 mph 24.2 mph N/A   Overcast
8:15 AM 48.2 °F - 41.0 °F 76% 29.76 in 10.0 mi WNW 19.6 mph 25.3 mph N/A   Mostly Cloudy
8:35 AM 48.2 °F - 39.2 °F 71% 29.76 in 10.0 mi WNW 20.7 mph 26.5 mph N/A   Partly Cloudy
8:55 AM 50.0 °F - 39.2 °F 66% 29.77 in - WNW 19.6 mph 25.3 mph N/A   Clear
9:15 AM 50.0 °F - 39.2 °F 66% 29.77 in 10.0 mi WNW 20.7 mph 27.6 mph N/A   Clear
9:35 AM 51.8 °F - 39.2 °F 62% 29.77 in 10.0 mi WNW 19.6 mph 33.4 mph N/A   Clear
9:55 AM 53.6 °F - 37.4 °F 54% 29.77 in 10.0 mi WNW 20.7 mph 31.1 mph N/A   Clear
10:15 AM 53.6 °F - 35.6 °F 51% 29.77 in 10.0 mi NW 23.0 mph 31.1 mph N/A   Scattered Clouds
10:35 AM 53.6 °F - 35.6 °F 51% 29.78 in 10.0 mi WNW 18.4 mph 28.8 mph N/A   Partly Cloudy
10:55 AM 55.4 °F - 35.6 °F 47% 29.78 in 10.0 mi West 21.9 mph 27.6 mph N/A   Partly Cloudy
11:15 AM 55.4 °F - 33.8 °F 44% 29.78 in 10.0 mi WNW 18.4 mph 25.3 mph N/A   Clear
11:35 AM 55.4 °F - 33.8 °F 44% 29.78 in 10.0 mi WNW 21.9 mph - N/A   Clear
11:55 AM 57.2 °F - 35.6 °F 44% 29.78 in 10.0 mi West 18.4 mph 24.2 mph N/A   Partly Cloudy
12:15 PM 59.0 °F - 33.8 °F 39% 29.78 in 10.0 mi NW 21.9 mph 29.9 mph N/A   Clear
12:35 PM 59.0 °F - 33.8 °F 39% 29.78 in 10.0 mi WNW 18.4 mph 26.5 mph N/A   Clear
12:55 PM 59.0 °F - 33.8 °F 39% 29.78 in 10.0 mi West 23.0 mph 29.9 mph N/A   Clear
1:15 PM 59.0 °F - 33.8 °F 39% 29.78 in 10.0 mi West 18.4 mph 25.3 mph N/A   Clear
1:35 PM 60.8 °F - 33.8 °F 36% 29.77 in 10.0 mi WNW 19.6 mph - N/A   Clear
1:55 PM 60.8 °F - 33.8 °F 36% 29.78 in 10.0 mi WNW 18.4 mph 27.6 mph N/A   Clear
2:15 PM 62.6 °F - 35.6 °F 37% 29.77 in 10.0 mi West 20.7 mph 28.8 mph N/A   Partly Cloudy
2:35 PM 62.6 °F - 35.6 °F 37% 29.77 in 10.0 mi West 21.9 mph - N/A   Partly Cloudy
2:55 PM 62.6 °F - 33.8 °F 34% 29.77 in 10.0 mi West 16.1 mph 28.8 mph N/A   Scattered Clouds
3:15 PM 62.6 °F - 33.8 °F 34% 29.77 in 10.0 mi West 18.4 mph - N/A   Partly Cloudy
3:35 PM 64.4 °F - 32.0 °F 30% 29.76 in 10.0 mi West 17.3 mph 26.5 mph N/A   Clear
3:55 PM 64.4 °F - 32.0 °F 30% 29.76 in 10.0 mi WSW 17.3 mph 25.3 mph N/A   Clear
4:15 PM 64.4 °F - 32.0 °F 30% 29.76 in 10.0 mi West 20.7 mph 27.6 mph N/A   Clear
4:35 PM 64.4 °F - 32.0 °F 30% 29.75 in 10.0 mi West 11.5 mph 20.7 mph N/A   Partly Cloudy
4:55 PM 64.4 °F - 32.0 °F 30% 29.75 in 10.0 mi West 13.8 mph 21.9 mph N/A   Scattered Clouds
5:15 PM 66.2 °F - 32.0 °F 28% 29.76 in 10.0 mi WSW 17.3 mph 29.9 mph N/A   Scattered Clouds
5:35 PM 64.4 °F - 32.0 °F 30% 29.76 in 10.0 mi WSW 15.0 mph 24.2 mph N/A   Partly Cloudy
5:55 PM 66.2 °F - 32.0 °F 28% 29.76 in 10.0 mi WNW 15.0 mph 23.0 mph N/A   Partly Cloudy
6:15 PM 64.4 °F - 32.0 °F 30% 29.76 in 10.0 mi West 18.4 mph - N/A   Partly Cloudy
6:35 PM 64.4 °F - 32.0 °F 30% 29.76 in 10.0 mi WSW 17.3 mph 23.0 mph N/A   Clear
6:55 PM 64.4 °F - 32.0 °F 30% 29.76 in 10.0 mi West 13.8 mph - N/A   Clear
7:15 PM 64.4 °F - 32.0 °F 30% 29.76 in 10.0 mi West 13.8 mph 21.9 mph N/A   Clear
7:35 PM 62.6 °F - 32.0 °F 32% 29.77 in 10.0 mi West 15.0 mph - N/A   Clear
7:55 PM 62.6 °F - 32.0 °F 32% 29.78 in 10.0 mi West 12.7 mph - N/A   Clear
8:15 PM 60.8 °F - 32.0 °F 34% 29.78 in 10.0 mi WNW 8.1 mph - N/A   Clear
8:35 PM 59.0 °F - 32.0 °F 36% 29.79 in 10.0 mi WNW 6.9 mph - N/A   Clear
8:55 PM 57.2 °F - 32.0 °F 38% 29.79 in 10.0 mi NW 5.8 mph - N/A   Clear
9:15 PM 53.6 °F - 32.0 °F 44% 29.79 in 10.0 mi NNW 3.5 mph - N/A   Clear
9:35 PM 53.6 °F - 32.0 °F 44% 29.80 in 10.0 mi North 4.6 mph - N/A   Clear
9:55 PM 50.0 °F - 32.0 °F 50% 29.80 in 10.0 mi North 5.8 mph - N/A   Clear
10:15 PM 48.2 °F - 33.8 °F 58% 29.80 in 10.0 mi NNE 5.8 mph - N/A   Clear
10:35 PM 48.2 °F - 33.8 °F 58% 29.81 in 10.0 mi NE 8.1 mph - N/A   Clear
10:55 PM 44.6 °F 42.2 °F 35.6 °F 71% 29.81 in 10.0 mi SE 4.6 mph - N/A   Clear
11:15 PM 44.6 °F 43.1 °F 33.8 °F 66% 29.81 in 10.0 mi ESE 3.5 mph - N/A   Clear
11:35 PM 44.6 °F 39.7 °F 33.8 °F 66% 29.80 in 10.0 mi NE 9.2 mph - N/A   Clear
11:55 PM 44.6 °F 40.7 °F 35.6 °F 71% 29.81 in 10.0 mi ENE 6.9 mph - N/A   Clear